Time;durP1;ratioP1;P1;durP2;ratioP2;P2;SDS_P1;SDS_P2;PMS_P1;PMS_P2;Temp;Humidity;BMP_temperature;BMP_pressure;BME280_temperature;BME280_humidity;BME280_pressure;Samples;Min_cycle;Max_cycle;Signal;HPM_P1;HPM_P2
2022/04/08 00:01:07;;;;;;;7.87;2.70;;;5.80;99.90;;;;;;5107748;28;20720;-60
2022/04/08 00:03:35;;;;;;;6.53;2.57;;;5.80;99.90;;;;;;5105025;28;20199;-60
2022/04/08 00:06:05;;;;;;;5.00;2.80;;;5.70;99.90;;;;;;5103735;28;20191;-60
2022/04/08 00:08:34;;;;;;;6.57;2.57;;;5.70;99.90;;;;;;5101231;28;20210;-60
2022/04/08 00:11:02;;;;;;;5.07;2.70;;;5.60;99.90;;;;;;5101021;28;20513;-60
2022/04/08 00:13:30;;;;;;;5.83;2.30;;;5.70;99.90;;;;;;5105461;28;20255;-60
2022/04/08 00:15:59;;;;;;;6.53;2.97;;;5.60;99.90;;;;;;5098522;28;20637;-60
2022/04/08 00:18:29;;;;;;;7.07;2.97;;;5.60;99.90;;;;;;5104405;28;20225;-60
2022/04/08 00:20:58;;;;;;;8.00;3.20;;;5.60;99.90;;;;;;5101323;28;20215;-60
2022/04/08 00:23:27;;;;;;;8.40;3.10;;;5.60;99.90;;;;;;5106505;28;20206;-60
2022/04/08 00:25:57;;;;;;;9.33;2.90;;;5.70;99.90;;;;;;5083296;28;20195;-60
2022/04/08 00:28:25;;;;;;;4.40;2.90;;;5.70;99.90;;;;;;5103718;28;20244;-60
2022/04/08 00:30:53;;;;;;;4.13;2.87;;;5.70;99.90;;;;;;5097722;28;20214;-60
2022/04/08 00:33:22;;;;;;;6.40;2.90;;;5.60;99.90;;;;;;5101422;28;20289;-60
2022/04/08 00:35:50;;;;;;;6.43;2.90;;;5.60;99.90;;;;;;5102436;28;20282;-60
2022/04/08 00:38:19;;;;;;;7.93;3.03;;;5.60;99.90;;;;;;5103575;28;20205;-60
2022/04/08 00:40:49;;;;;;;4.70;3.07;;;5.60;99.90;;;;;;5104449;28;20630;-60
2022/04/08 00:43:19;;;;;;;5.73;3.10;;;5.50;99.90;;;;;;5103730;27;20206;-60
2022/04/08 00:45:47;;;;;;;8.30;3.30;;;5.60;99.90;;;;;;5101255;28;20195;-60
2022/04/08 00:48:16;;;;;;;4.53;2.90;;;5.60;99.90;;;;;;5103513;28;20211;-60
2022/04/08 00:50:45;;;;;;;9.80;3.10;;;5.60;99.90;;;;;;5104246;27;20244;-60
2022/04/08 00:53:13;;;;;;;2.90;2.63;;;5.50;99.90;;;;;;5104109;28;20291;-61
2022/04/08 00:55:42;;;;;;;5.10;3.17;;;5.50;99.90;;;;;;5100521;28;20198;-61
2022/04/08 00:58:14;;;;;;;5.63;3.17;;;5.50;99.90;;;;;;5105378;28;20202;-60
2022/04/08 01:00:43;;;;;;;4.97;3.57;;;5.50;99.90;;;;;;5102416;28;20235;-60
2022/04/08 01:03:11;;;;;;;5.80;3.13;;;5.50;99.90;;;;;;5095501;28;20739;-60
2022/04/08 01:05:41;;;;;;;3.40;3.10;;;5.40;99.90;;;;;;5101224;28;20268;-60
2022/04/08 01:08:11;;;;;;;7.33;3.40;;;5.40;99.90;;;;;;5105064;28;20268;-61
2022/04/08 01:10:40;;;;;;;9.43;3.60;;;5.40;99.90;;;;;;5105967;28;20196;-60
2022/04/08 01:13:09;;;;;;;6.90;3.33;;;5.40;99.90;;;;;;5104490;28;20202;-61
2022/04/08 01:15:39;;;;;;;7.03;3.57;;;5.40;99.90;;;;;;5103564;28;20634;-61
2022/04/08 01:18:08;;;;;;;7.43;3.60;;;5.50;99.90;;;;;;5104808;28;20198;-60
2022/04/08 01:20:37;;;;;;;6.17;3.20;;;5.50;99.90;;;;;;5102964;28;20195;-61
2022/04/08 01:23:06;;;;;;;5.90;3.47;;;5.50;99.90;;;;;;5107303;28;20223;-61
2022/04/08 01:25:36;;;;;;;6.70;3.70;;;5.50;99.90;;;;;;5100624;28;20202;-60
2022/04/08 01:28:05;;;;;;;7.70;3.40;;;5.50;99.90;;;;;;5104244;28;20313;-60
2022/04/08 01:30:33;;;;;;;5.43;3.57;;;5.60;99.90;;;;;;5103762;28;20750;-60
2022/04/08 01:33:02;;;;;;;5.53;3.57;;;5.70;99.90;;;;;;5101955;27;20286;-60
2022/04/08 01:35:30;;;;;;;4.40;3.07;;;5.60;99.90;;;;;;5102538;28;20221;-60
2022/04/08 01:37:59;;;;;;;8.97;3.47;;;5.60;99.90;;;;;;5104837;28;20556;-60
2022/04/08 01:40:27;;;;;;;3.23;3.13;;;5.60;99.90;;;;;;5101893;28;20187;-60
2022/04/08 01:42:57;;;;;;;4.50;3.57;;;5.50;99.90;;;;;;5102880;28;20217;-60
2022/04/08 01:45:25;;;;;;;6.87;3.37;;;5.50;99.90;;;;;;5102680;28;20286;-61
2022/04/08 01:47:54;;;;;;;3.70;3.40;;;5.50;99.90;;;;;;5102094;28;20228;-60
2022/04/08 01:50:22;;;;;;;7.70;3.53;;;5.50;99.90;;;;;;5100552;28;20574;-61
2022/04/08 01:52:51;;;;;;;7.40;3.53;;;5.60;99.90;;;;;;5104329;28;20270;-60
2022/04/08 01:55:20;;;;;;;5.43;3.30;;;5.50;99.90;;;;;;5103922;28;20222;-60
2022/04/08 01:57:48;;;;;;;4.57;3.63;;;5.50;99.90;;;;;;5103194;28;20187;-61
2022/04/08 02:00:18;;;;;;;6.33;3.73;;;5.50;99.90;;;;;;5104282;28;20617;-61
2022/04/08 02:02:46;;;;;;;6.93;3.77;;;5.40;99.90;;;;;;5101967;28;20293;-61
2022/04/08 02:05:15;;;;;;;9.37;3.70;;;5.40;99.90;;;;;;5102412;28;20199;-61
2022/04/08 02:07:44;;;;;;;6.57;4.10;;;5.30;99.90;;;;;;5102982;28;20241;-60
2022/04/08 02:10:12;;;;;;;7.43;4.37;;;5.30;99.90;;;;;;5104933;28;20226;-60
2022/04/08 02:12:40;;;;;;;5.80;4.00;;;5.30;99.90;;;;;;5101424;28;20769;-60
2022/04/08 02:15:11;;;;;;;6.10;4.33;;;5.20;99.90;;;;;;5101896;28;20282;-60
2022/04/08 02:17:41;;;;;;;9.17;4.27;;;5.20;99.90;;;;;;5099526;28;20195;-60
2022/04/08 02:20:10;;;;;;;6.07;4.57;;;5.10;99.90;;;;;;5099905;28;20187;-60
2022/04/08 02:22:38;;;;;;;11.10;4.50;;;5.10;99.90;;;;;;5094017;28;20594;-62
2022/04/08 02:25:09;;;;;;;10.73;4.40;;;5.00;99.90;;;;;;5100845;28;20568;-60
2022/04/08 02:27:38;;;;;;;9.03;4.17;;;5.00;99.90;;;;;;5104988;28;20201;-62
2022/04/08 02:30:08;;;;;;;7.83;4.60;;;5.00;99.90;;;;;;5103861;28;20551;-60
2022/04/08 02:32:36;;;;;;;6.70;4.40;;;5.00;99.90;;;;;;5100412;28;20641;-62
2022/04/08 02:35:07;;;;;;;10.40;4.60;;;5.00;99.90;;;;;;5100969;28;20692;-62
2022/04/08 02:37:35;;;;;;;8.40;4.70;;;5.00;99.90;;;;;;5101732;28;20577;-62
2022/04/08 02:40:04;;;;;;;6.47;4.73;;;4.90;99.90;;;;;;5084888;28;20559;-62
2022/04/08 02:42:33;;;;;;;8.67;4.90;;;4.80;99.90;;;;;;5102052;28;20227;-62
2022/04/08 02:45:01;;;;;;;10.37;4.43;;;4.80;99.90;;;;;;5102358;28;20681;-60
2022/04/08 02:47:29;;;;;;;11.03;4.90;;;4.80;99.90;;;;;;5100198;28;20617;-60
2022/04/08 02:49:58;;;;;;;9.70;4.50;;;4.70;99.90;;;;;;5102590;28;20199;-60
2022/04/08 02:52:28;;;;;;;9.80;4.93;;;4.60;99.90;;;;;;5101489;28;20578;-60
2022/04/08 02:54:56;;;;;;;7.63;4.70;;;4.60;99.90;;;;;;5104710;28;20646;-60
2022/04/08 02:57:25;;;;;;;8.00;4.60;;;4.60;99.90;;;;;;5102740;28;20612;-60
2022/04/08 02:59:53;;;;;;;7.97;5.20;;;4.60;99.90;;;;;;5101521;28;20653;-61
2022/04/08 03:02:22;;;;;;;10.60;5.07;;;4.50;99.90;;;;;;5101974;28;20597;-60
2022/04/08 03:04:51;;;;;;;11.37;4.90;;;4.50;99.90;;;;;;5101199;28;20666;-61
2022/04/08 03:07:20;;;;;;;9.17;5.20;;;4.50;99.90;;;;;;5101209;28;20566;-60
2022/04/08 03:09:50;;;;;;;13.53;5.13;;;4.50;99.90;;;;;;5102540;28;20203;-60
2022/04/08 03:12:19;;;;;;;13.13;5.33;;;4.50;99.90;;;;;;5104132;28;20662;-60
2022/04/08 03:14:47;;;;;;;9.73;4.83;;;4.50;99.90;;;;;;5099856;27;20201;-60
2022/04/08 03:17:16;;;;;;;8.47;5.03;;;4.50;99.90;;;;;;5102712;28;20200;-60
2022/04/08 03:19:44;;;;;;;13.47;5.17;;;4.60;99.90;;;;;;5102459;28;20598;-60
2022/04/08 03:22:13;;;;;;;10.40;4.77;;;4.60;99.90;;;;;;5120466;27;20727;-60
2022/04/08 03:24:41;;;;;;;8.83;4.80;;;4.60;99.90;;;;;;5104198;28;20199;-60
2022/04/08 03:27:11;;;;;;;5.20;4.70;;;4.60;99.90;;;;;;5099068;28;20198;-60
2022/04/08 03:29:39;;;;;;;6.30;4.90;;;4.70;99.90;;;;;;5104687;28;20222;-59
2022/04/08 03:32:09;;;;;;;6.27;4.40;;;4.70;99.90;;;;;;5102684;28;20202;-60
2022/04/08 03:34:37;;;;;;;8.47;4.43;;;4.70;99.90;;;;;;5101313;28;20201;-60
2022/04/08 03:37:06;;;;;;;6.07;4.80;;;4.70;99.90;;;;;;5101964;28;20210;-60
2022/04/08 03:39:35;;;;;;;8.07;4.57;;;4.70;99.90;;;;;;5102776;28;20264;-60
2022/04/08 03:42:03;;;;;;;11.70;4.70;;;4.70;99.90;;;;;;5102394;28;20226;-60
2022/04/08 03:44:33;;;;;;;10.03;4.53;;;4.70;99.90;;;;;;5104647;28;20294;-60
2022/04/08 03:47:01;;;;;;;5.93;4.30;;;4.70;99.90;;;;;;5099962;28;20591;-60
2022/04/08 03:49:32;;;;;;;5.10;4.20;;;4.70;99.90;;;;;;5102989;28;20210;-60
2022/04/08 03:52:04;;;;;;;8.67;5.10;;;4.70;99.90;;;;;;5100188;28;20195;-60
2022/04/08 03:54:32;;;;;;;7.47;4.33;;;4.70;99.90;;;;;;5091878;28;20270;-60
2022/04/08 03:57:00;;;;;;;9.67;4.30;;;4.70;99.90;;;;;;5108396;28;20209;-60
2022/04/08 03:59:29;;;;;;;6.83;4.77;;;4.60;99.90;;;;;;5104485;28;20203;-60
2022/04/08 04:02:01;;;;;;;5.97;4.33;;;4.50;99.90;;;;;;5102941;28;20190;-60
2022/04/08 04:04:29;;;;;;;8.07;4.40;;;4.50;99.90;;;;;;5098545;28;20241;-60
2022/04/08 04:06:57;;;;;;;6.50;4.30;;;4.40;99.90;;;;;;5101556;28;20310;-61
2022/04/08 04:09:26;;;;;;;6.83;4.20;;;4.40;99.90;;;;;;5104009;28;20195;-60
2022/04/08 04:11:54;;;;;;;5.03;4.37;;;4.30;99.90;;;;;;5103576;28;20237;-60
2022/04/08 04:14:22;;;;;;;6.57;3.90;;;4.30;99.90;;;;;;5103799;28;20677;-60
2022/04/08 04:16:51;;;;;;;7.87;3.93;;;4.20;99.90;;;;;;5108272;28;20191;-60
2022/04/08 04:19:20;;;;;;;7.30;4.40;;;4.20;99.90;;;;;;5104460;28;20183;-60
2022/04/08 04:21:50;;;;;;;7.23;4.30;;;4.10;99.90;;;;;;5100953;28;20210;-60
2022/04/08 04:24:19;;;;;;;12.63;4.77;;;4.10;99.90;;;;;;5105922;28;20314;-60
2022/04/08 04:26:47;;;;;;;6.30;4.13;;;4.00;99.90;;;;;;5105532;28;20233;-61
2022/04/08 04:29:15;;;;;;;5.57;4.40;;;4.00;99.90;;;;;;5099227;28;20239;-61
2022/04/08 04:31:44;;;;;;;7.87;4.40;;;3.90;99.90;;;;;;5104264;28;20201;-60
2022/04/08 04:34:12;;;;;;;4.43;4.03;;;3.90;99.90;;;;;;5104556;28;20203;-60
2022/04/08 04:36:42;;;;;;;10.17;4.23;;;3.80;99.90;;;;;;5103211;28;20206;-61
2022/04/08 04:39:11;;;;;;;8.90;4.50;;;3.80;99.90;;;;;;5103301;28;20218;-60
2022/04/08 04:41:40;;;;;;;7.90;4.53;;;3.80;99.90;;;;;;5108241;28;20191;-60
2022/04/08 04:44:08;;;;;;;7.10;4.33;;;3.80;99.90;;;;;;5104832;27;20315;-60
2022/04/08 04:46:37;;;;;;;9.67;4.63;;;3.70;99.90;;;;;;5101943;28;20257;-60
2022/04/08 04:49:06;;;;;;;6.33;4.50;;;3.70;99.90;;;;;;5105939;28;20206;-60
2022/04/08 04:51:34;;;;;;;10.07;4.57;;;3.70;99.90;;;;;;5100996;28;20201;-60
2022/04/08 04:54:04;;;;;;;9.37;4.77;;;3.70;99.90;;;;;;5099818;28;20272;-60
2022/04/08 04:56:33;;;;;;;7.13;4.43;;;3.70;99.90;;;;;;5116751;27;20202;-60
2022/04/08 04:59:01;;;;;;;5.87;4.20;;;3.80;99.90;;;;;;5104326;28;20214;-60
2022/04/08 05:01:30;;;;;;;14.93;4.47;;;3.80;99.90;;;;;;5102049;28;20252;-62
2022/04/08 05:03:58;;;;;;;11.83;5.07;;;3.80;99.90;;;;;;5100933;28;20293;-60
2022/04/08 05:06:26;;;;;;;7.23;4.17;;;3.80;99.90;;;;;;5100064;28;20634;-61
2022/04/08 05:08:55;;;;;;;9.07;4.73;;;3.70;99.90;;;;;;5100152;28;20730;-60
2022/04/08 05:11:25;;;;;;;5.60;4.63;;;3.70;99.90;;;;;;5101019;28;20187;-60
2022/04/08 05:13:53;;;;;;;7.90;4.83;;;3.70;99.90;;;;;;5098939;28;20674;-61
2022/04/08 05:16:22;;;;;;;8.67;4.57;;;3.70;99.90;;;;;;5103555;28;20205;-61
2022/04/08 05:18:51;;;;;;;10.10;4.87;;;3.70;99.90;;;;;;5105670;28;20199;-60
2022/04/08 05:21:19;;;;;;;9.87;4.10;;;3.70;99.90;;;;;;5102236;28;20191;-60
2022/04/08 05:23:48;;;;;;;6.33;4.10;;;3.80;99.90;;;;;;5100043;28;20218;-60
2022/04/08 05:26:16;;;;;;;10.87;4.40;;;3.80;99.90;;;;;;5100709;28;20198;-60
2022/04/08 05:28:46;;;;;;;6.37;3.77;;;3.80;99.90;;;;;;5086518;28;20231;-61
2022/04/08 05:31:15;;;;;;;7.30;4.00;;;3.90;99.90;;;;;;5099774;28;20226;-60
2022/04/08 05:33:46;;;;;;;11.70;4.57;;;3.90;99.90;;;;;;5099995;28;20563;-60
2022/04/08 05:36:14;;;;;;;8.47;3.97;;;4.00;99.90;;;;;;5103405;28;20211;-60
2022/04/08 05:38:46;;;;;;;7.50;4.00;;;4.00;99.90;;;;;;5104055;28;20559;-60
2022/04/08 05:41:15;;;;;;;10.50;4.00;;;4.10;99.90;;;;;;5099799;28;20203;-60
2022/04/08 05:43:44;;;;;;;7.60;3.67;;;4.10;99.90;;;;;;5105646;28;20218;-61
2022/04/08 05:46:15;;;;;;;5.63;3.60;;;4.20;99.90;;;;;;5104976;28;20207;-61
2022/04/08 05:48:43;;;;;;;7.47;4.03;;;4.20;99.90;;;;;;5105728;28;20202;-61
2022/04/08 05:51:12;;;;;;;7.70;4.00;;;4.30;99.90;;;;;;5103081;28;20190;-61
2022/04/08 05:53:40;;;;;;;10.13;3.90;;;4.30;99.90;;;;;;5105112;28;20319;-61
2022/04/08 05:56:09;;;;;;;4.23;3.83;;;4.40;99.90;;;;;;5105557;28;20210;-61
2022/04/08 05:58:37;;;;;;;5.40;3.90;;;4.50;99.90;;;;;;5105980;28;20221;-61
2022/04/08 06:01:06;;;;;;;7.03;3.73;;;4.50;99.90;;;;;;5103719;28;20203;-61
2022/04/08 06:03:36;;;;;;;6.63;3.50;;;4.50;99.90;;;;;;5100310;28;20218;-61
2022/04/08 06:06:04;;;;;;;9.20;3.77;;;4.50;99.90;;;;;;5103372;27;20278;-60
2022/04/08 06:08:33;;;;;;;11.47;4.30;;;4.60;99.90;;;;;;5105473;27;20737;-60
2022/04/08 06:11:01;;;;;;;7.40;3.80;;;4.70;99.90;;;;;;5105909;27;20251;-61
2022/04/08 06:13:30;;;;;;;4.93;3.60;;;4.70;99.90;;;;;;5102320;28;20281;-60
2022/04/08 06:15:58;;;;;;;5.00;3.77;;;4.80;99.90;;;;;;5105490;27;20210;-61
2022/04/08 06:18:26;;;;;;;4.77;3.87;;;4.80;99.90;;;;;;5102715;28;20203;-60
2022/04/08 06:20:56;;;;;;;6.13;3.77;;;4.90;99.90;;;;;;5110031;27;20270;-60
2022/04/08 06:23:24;;;;;;;7.43;4.07;;;4.90;99.90;;;;;;5104092;27;20205;-61
2022/04/08 06:25:53;;;;;;;6.63;3.70;;;5.00;99.90;;;;;;5103783;28;20808;-61
2022/04/08 06:28:21;;;;;;;11.07;4.23;;;5.00;99.90;;;;;;5103878;27;20318;-61
2022/04/08 06:30:50;;;;;;;7.33;3.63;;;5.00;99.90;;;;;;5108683;27;20203;-61
2022/04/08 06:33:18;;;;;;;6.23;4.13;;;5.10;99.90;;;;;;5099906;28;20206;-61
2022/04/08 06:35:46;;;;;;;5.93;3.47;;;5.10;99.90;;;;;;5092955;28;20186;-61
2022/04/08 06:38:16;;;;;;;7.40;3.23;;;5.20;99.90;;;;;;5102124;28;20282;-61
2022/04/08 06:40:44;;;;;;;6.07;3.20;;;5.20;99.90;;;;;;5097360;28;20217;-61
2022/04/08 06:43:13;;;;;;;6.80;3.37;;;5.30;99.90;;;;;;5102990;28;20209;-60
2022/04/08 06:45:41;;;;;;;3.90;3.33;;;5.30;99.90;;;;;;5099247;28;20214;-61
2022/04/08 06:48:10;;;;;;;4.77;3.27;;;5.40;99.90;;;;;;5098077;28;20206;-60
2022/04/08 06:50:39;;;;;;;11.70;3.53;;;5.40;99.90;;;;;;5104061;28;20274;-60
2022/04/08 06:53:07;;;;;;;5.80;3.47;;;5.50;99.90;;;;;;5105632;28;20198;-61
2022/04/08 06:55:37;;;;;;;9.93;3.60;;;5.50;99.90;;;;;;5099953;28;20199;-60
2022/04/08 06:58:06;;;;;;;9.50;3.60;;;5.60;99.90;;;;;;5099967;28;20658;-61
2022/04/08 07:00:34;;;;;;;5.97;3.10;;;5.60;99.90;;;;;;5104738;28;20295;-60
2022/04/08 07:03:04;;;;;;;5.47;3.10;;;5.70;99.90;;;;;;5096621;27;20282;-61
2022/04/08 07:05:33;;;;;;;7.77;3.43;;;5.70;99.90;;;;;;5097363;28;20275;-60
2022/04/08 07:08:01;;;;;;;6.50;3.37;;;5.80;99.90;;;;;;5102276;28;20191;-61
2022/04/08 07:10:30;;;;;;;8.10;3.63;;;5.90;99.90;;;;;;5103749;28;20286;-61
2022/04/08 07:13:00;;;;;;;5.03;2.87;;;5.90;99.90;;;;;;5102355;28;20194;-60
2022/04/08 07:15:30;;;;;;;5.47;3.20;;;6.00;99.90;;;;;;5096544;28;20191;-60
2022/04/08 07:17:58;;;;;;;5.73;3.50;;;6.00;99.90;;;;;;5105795;28;20202;-60
2022/04/08 07:20:26;;;;;;;6.77;3.30;;;6.10;99.90;;;;;;5103564;28;20293;-60
2022/04/08 07:22:55;;;;;;;3.87;3.07;;;6.10;99.90;;;;;;5103147;28;20230;-60
2022/04/08 07:25:23;;;;;;;4.53;3.27;;;6.20;99.90;;;;;;5090220;28;20222;-59
2022/04/08 07:27:55;;;;;;;8.10;3.37;;;6.20;99.90;;;;;;5096754;28;20262;-60
2022/04/08 07:30:26;;;;;;;6.07;3.83;;;6.30;99.90;;;;;;5103933;27;20960;-60
2022/04/08 07:32:55;;;;;;;5.37;3.23;;;6.30;99.90;;;;;;5106628;27;20225;-60
2022/04/08 07:35:25;;;;;;;7.47;3.40;;;6.40;99.90;;;;;;5108148;27;20214;-60
2022/04/08 07:37:54;;;;;;;7.67;3.00;;;6.40;99.90;;;;;;5106805;27;20203;-60
2022/04/08 07:40:22;;;;;;;5.97;3.00;;;6.50;99.90;;;;;;5119386;27;20200;-60
2022/04/08 07:42:51;;;;;;;7.00;3.10;;;6.60;99.90;;;;;;5113179;27;21097;-60
2022/04/08 07:45:21;;;;;;;6.23;3.93;;;6.60;99.90;;;;;;5109922;27;20210;-60
2022/04/08 07:47:50;;;;;;;8.17;3.93;;;6.70;99.90;;;;;;5107400;28;20640;-60
2022/04/08 07:50:19;;;;;;;4.70;3.40;;;6.70;99.90;;;;;;5106310;27;20207;-60
2022/04/08 07:52:47;;;;;;;7.33;3.70;;;6.80;99.90;;;;;;5106770;27;20274;-60
2022/04/08 07:55:17;;;;;;;6.43;3.50;;;6.80;99.90;;;;;;5120708;27;20206;-60
2022/04/08 07:57:46;;;;;;;8.20;3.57;;;6.80;99.90;;;;;;5106282;28;20218;-61
2022/04/08 08:00:16;;;;;;;7.60;3.40;;;6.80;99.90;;;;;;5107819;28;20198;-60
2022/04/08 08:02:45;;;;;;;7.23;3.10;;;6.90;99.90;;;;;;5106673;27;20199;-60
2022/04/08 08:05:15;;;;;;;4.73;3.37;;;6.90;99.90;;;;;;5103246;27;20230;-60
2022/04/08 08:07:49;;;;;;;7.57;3.20;;;7.00;99.90;;;;;;5102009;28;20233;-60
2022/04/08 08:10:18;;;;;;;9.10;3.20;;;7.10;99.90;;;;;;5102971;28;20194;-60
2022/04/08 08:12:47;;;;;;;8.37;3.20;;;7.20;99.90;;;;;;5104276;28;20195;-59
2022/04/08 08:15:18;;;;;;;7.43;2.97;;;7.30;99.90;;;;;;5104463;27;20244;-60
2022/04/08 08:17:47;;;;;;;8.10;3.23;;;7.40;99.90;;;;;;5102409;28;20194;-59
2022/04/08 08:20:18;;;;;;;5.70;3.40;;;7.40;99.90;;;;;;5100374;27;20196;-60
2022/04/08 08:22:47;;;;;;;11.07;3.40;;;7.50;99.90;;;;;;5103752;27;20613;-60
2022/04/08 08:25:16;;;;;;;6.80;3.17;;;7.60;99.90;;;;;;5103991;28;20343;-59
2022/04/08 08:27:46;;;;;;;7.87;3.33;;;7.50;99.90;;;;;;5110728;27;20237;-60
2022/04/08 08:30:16;;;;;;;8.20;3.63;;;7.60;99.90;;;;;;5108266;27;20205;-60
2022/04/08 08:32:46;;;;;;;9.70;5.30;;;7.60;99.90;;;;;;5107962;27;20607;-60
2022/04/08 08:35:18;;;;;;;17.43;11.13;;;7.70;99.90;;;;;;5108047;28;20202;-60
2022/04/08 08:37:47;;;;;;;16.00;10.40;;;7.80;99.90;;;;;;5107212;28;20183;-60
2022/04/08 08:40:18;;;;;;;12.07;7.80;;;7.80;99.90;;;;;;5108722;27;20248;-60
2022/04/08 08:42:47;;;;;;;7.60;5.53;;;7.70;99.90;;;;;;5103845;27;20286;-60
2022/04/08 08:45:17;;;;;;;9.03;5.40;;;7.70;99.90;;;;;;5103932;27;20207;-60
2022/04/08 08:47:48;;;;;;;4.30;3.80;;;7.70;99.90;;;;;;5105701;27;20274;-60
2022/04/08 08:50:19;;;;;;;5.47;3.87;;;7.80;99.90;;;;;;5103778;28;20217;-60
2022/04/08 08:52:51;;;;;;;5.93;3.80;;;7.80;99.90;;;;;;5112947;27;20703;-60
2022/04/08 08:55:20;;;;;;;5.77;3.23;;;7.90;99.90;;;;;;5104965;27;20282;-60
2022/04/08 08:57:49;;;;;;;6.43;3.80;;;8.00;99.90;;;;;;5101329;28;20665;-61
2022/04/08 09:00:19;;;;;;;7.97;3.70;;;7.90;99.90;;;;;;5103201;27;20195;-60
2022/04/08 09:02:49;;;;;;;5.87;3.97;;;7.90;99.90;;;;;;5107792;28;20194;-60
2022/04/08 09:05:20;;;;;;;10.87;5.10;;;8.00;99.90;;;;;;5102087;28;20214;-60
2022/04/08 09:07:56;;;;;;;9.47;4.60;;;7.90;99.90;;;;;;5103473;28;20225;-60
2022/04/08 09:10:26;;;;;;;6.00;4.00;;;7.90;99.90;;;;;;5101673;28;20308;-60
2022/04/08 09:12:55;;;;;;;7.37;3.93;;;7.90;99.90;;;;;;5103555;28;20278;-60
2022/04/08 09:15:24;;;;;;;6.77;4.30;;;7.80;99.90;;;;;;5107335;28;20268;-60
2022/04/08 09:17:53;;;;;;;7.27;4.77;;;7.80;99.90;;;;;;5104852;27;20199;-60
2022/04/08 09:20:23;;;;;;;7.97;4.43;;;7.80;99.90;;;;;;5105938;27;20309;-60
2022/04/08 09:22:56;;;;;;;8.10;4.57;;;7.80;99.90;;;;;;5100561;28;20194;-60
2022/04/08 09:25:26;;;;;;;8.53;4.27;;;7.80;99.90;;;;;;5105188;27;20229;-60
2022/04/08 09:27:58;;;;;;;7.97;4.70;;;7.90;99.90;;;;;;5102718;27;20306;-61
2022/04/08 09:30:27;;;;;;;4.53;3.67;;;8.00;99.90;;;;;;5108084;27;20610;-60
2022/04/08 09:32:55;;;;;;;10.33;4.33;;;8.10;99.90;;;;;;5107553;28;20692;-60
2022/04/08 09:35:25;;;;;;;5.87;3.77;;;8.20;99.90;;;;;;5109447;27;20195;-60
2022/04/08 09:38:01;;;;;;;9.20;3.67;;;8.20;99.90;;;;;;5110709;27;20202;-60
2022/04/08 09:40:37;;;;;;;9.37;3.83;;;8.20;99.90;;;;;;5108973;27;20630;-60
2022/04/08 09:43:06;;;;;;;13.73;3.60;;;8.20;99.90;;;;;;5105020;27;20204;-60
2022/04/08 09:45:37;;;;;;;8.60;3.70;;;8.30;99.90;;;;;;5106683;27;20651;-61
2022/04/08 09:48:07;;;;;;;15.33;3.63;;;8.30;99.90;;;;;;5102670;28;20187;-60
2022/04/08 09:50:39;;;;;;;8.63;3.50;;;8.30;99.90;;;;;;5108320;27;20203;-60
2022/04/08 09:53:09;;;;;;;5.07;3.57;;;8.30;99.90;;;;;;5087576;27;20202;-60
2022/04/08 09:55:41;;;;;;;6.27;3.50;;;8.30;99.90;;;;;;5110057;27;20190;-60
2022/04/08 09:58:11;;;;;;;8.67;4.00;;;8.30;99.90;;;;;;5104735;27;20205;-60
2022/04/08 10:00:44;;;;;;;7.60;3.83;;;8.30;99.90;;;;;;5106172;28;20600;-60
2022/04/08 10:03:13;;;;;;;4.40;3.23;;;8.30;99.90;;;;;;5099517;28;20623;-60
2022/04/08 10:05:44;;;;;;;10.90;3.80;;;8.40;99.90;;;;;;5106809;27;20198;-60
2022/04/08 10:08:14;;;;;;;7.20;3.53;;;8.50;99.90;;;;;;5105626;28;20269;-60
2022/04/08 10:10:49;;;;;;;5.87;3.07;;;8.50;99.90;;;;;;5104180;27;20191;-60
2022/04/08 10:13:33;;;;;;;4.07;2.90;;;8.50;99.90;;;;;;5099845;28;20237;-61
2022/04/08 10:16:09;;;;;;;5.93;3.10;;;8.60;99.90;;;;;;5101882;27;20226;-61
2022/04/08 10:18:39;;;;;;;9.57;3.40;;;8.60;99.90;;;;;;5096747;28;20194;-61
2022/04/08 10:21:10;;;;;;;4.27;3.00;;;8.70;99.90;;;;;;5107687;27;20642;-61
2022/04/08 10:23:40;;;;;;;4.57;3.10;;;8.80;99.90;;;;;;5104586;27;20190;-60
2022/04/08 10:26:18;;;;;;;6.43;3.10;;;8.80;99.90;;;;;;5100006;27;20685;-60
2022/04/08 10:28:46;;;;;;;7.87;2.97;;;8.80;99.90;;;;;;5118954;27;20229;-61
2022/04/08 10:31:16;;;;;;;9.53;3.17;;;8.80;99.90;;;;;;5104871;28;20237;-61
2022/04/08 10:33:48;;;;;;;4.47;2.43;;;8.90;99.90;;;;;;5109560;27;20717;-61
2022/04/08 10:36:19;;;;;;;3.20;2.90;;;8.90;99.90;;;;;;5107203;27;20260;-61
2022/04/08 10:38:47;;;;;;;6.17;2.50;;;8.90;99.90;;;;;;5107127;28;20266;-61
2022/04/08 10:41:15;;;;;;;11.47;2.90;;;8.80;99.90;;;;;;5105772;28;20255;-61
2022/04/08 10:43:45;;;;;;;7.03;2.40;;;8.90;99.90;;;;;;5100023;28;20203;-61
2022/04/08 10:46:13;;;;;;;8.33;2.63;;;9.00;99.90;;;;;;5102209;28;20190;-61
2022/04/08 10:48:42;;;;;;;2.87;2.57;;;9.00;99.90;;;;;;5108056;28;20680;-61
2022/04/08 10:51:13;;;;;;;5.20;2.70;;;9.10;99.90;;;;;;5116783;28;21758;-61
2022/04/08 10:53:43;;;;;;;4.17;2.60;;;9.10;99.90;;;;;;5113602;28;20209;-61
2022/04/08 10:56:14;;;;;;;4.57;2.53;;;9.00;99.90;;;;;;5107622;28;20730;-61
2022/04/08 10:58:43;;;;;;;3.43;2.60;;;9.10;99.90;;;;;;5105824;28;20194;-61
2022/04/08 11:01:19;;;;;;;6.50;2.80;;;9.10;99.90;;;;;;5104975;28;20202;-60
2022/04/08 11:03:55;;;;;;;6.13;3.00;;;9.10;99.90;;;;;;5108311;28;20194;-61
2022/04/08 11:06:26;;;;;;;3.17;2.60;;;9.20;99.90;;;;;;5107089;27;20189;-60
2022/04/08 11:08:56;;;;;;;3.73;2.43;;;9.20;99.90;;;;;;5090522;28;20236;-61
2022/04/08 11:11:32;;;;;;;9.27;3.07;;;9.20;99.90;;;;;;5105009;28;20676;-61
2022/04/08 11:14:02;;;;;;;6.27;2.80;;;9.20;99.90;;;;;;5104837;27;20218;-61
2022/04/08 11:16:32;;;;;;;8.87;3.27;;;9.30;99.90;;;;;;5109408;28;20190;-61
2022/04/08 11:19:01;;;;;;;10.03;3.60;;;9.30;99.90;;;;;;5107196;27;20209;-61
2022/04/08 11:21:30;;;;;;;8.73;3.10;;;9.30;99.90;;;;;;5105330;28;20275;-61
2022/04/08 11:24:01;;;;;;;6.50;3.10;;;9.30;99.90;;;;;;5108109;28;20268;-61
2022/04/08 11:26:31;;;;;;;7.90;3.27;;;9.40;99.90;;;;;;5106512;27;20248;-61
2022/04/08 11:29:10;;;;;;;7.53;3.57;;;9.40;99.90;;;;;;5104887;28;20309;-62
2022/04/08 11:31:40;;;;;;;6.83;3.47;;;9.50;99.90;;;;;;5109968;27;20205;-61
2022/04/08 11:34:13;;;;;;;8.03;3.77;;;9.60;99.90;;;;;;5112359;27;20194;-61
2022/04/08 11:36:42;;;;;;;8.80;3.50;;;9.80;99.90;;;;;;5104981;27;20268;-61
2022/04/08 11:39:21;;;;;;;8.60;3.37;;;9.90;99.90;;;;;;5111951;28;20265;-60
2022/04/08 11:41:54;;;;;;;9.60;3.30;;;10.00;99.90;;;;;;5108903;28;20202;-60
2022/04/08 11:44:23;;;;;;;5.93;3.40;;;10.00;99.90;;;;;;5110456;28;20207;-60
2022/04/08 11:46:52;;;;;;;8.57;3.10;;;9.90;99.90;;;;;;5101041;28;20198;-60
2022/04/08 11:49:24;;;;;;;9.40;3.43;;;9.80;99.90;;;;;;5101242;27;20203;-60
2022/04/08 11:52:02;;;;;;;10.93;3.07;;;9.90;99.90;;;;;;5110678;27;20247;-60
2022/04/08 11:54:36;;;;;;;5.57;3.30;;;9.90;99.90;;;;;;5105913;28;20204;-60
2022/04/08 11:57:27;;;;;;;8.03;3.17;;;10.00;99.90;;;;;;5105483;28;20191;-60
2022/04/08 11:59:56;;;;;;;7.07;3.17;;;10.10;99.90;;;;;;5102727;27;20273;-60
2022/04/08 12:02:25;;;;;;;4.80;3.20;;;10.20;99.90;;;;;;5108919;27;20286;-60
2022/04/08 12:04:54;;;;;;;9.73;3.43;;;10.20;99.90;;;;;;5111564;27;20213;-60
2022/04/08 12:07:24;;;;;;;7.87;3.53;;;10.20;99.90;;;;;;5116450;27;20242;-60
2022/04/08 12:09:55;;;;;;;6.40;3.47;;;10.20;99.90;;;;;;5117468;27;20201;-60
2022/04/08 12:12:24;;;;;;;6.90;3.13;;;10.20;99.90;;;;;;5111862;27;20741;-61
2022/04/08 12:14:53;;;;;;;6.60;3.60;;;10.20;99.90;;;;;;5102359;28;20190;-60
2022/04/08 12:17:22;;;;;;;7.43;3.30;;;10.40;99.90;;;;;;5104501;28;20191;-61
2022/04/08 12:19:52;;;;;;;7.33;3.17;;;10.40;99.90;;;;;;5107187;28;20205;-60
2022/04/08 12:22:21;;;;;;;5.23;2.60;;;10.40;99.90;;;;;;5109046;28;20213;-60
2022/04/08 12:24:50;;;;;;;3.60;2.40;;;10.50;99.90;;;;;;5109081;27;20285;-60
2022/04/08 12:27:22;;;;;;;3.67;2.87;;;10.50;99.90;;;;;;5103566;27;20229;-61
2022/04/08 12:29:59;;;;;;;4.20;2.70;;;10.50;99.90;;;;;;5092119;28;20719;-60
2022/04/08 12:32:34;;;;;;;8.03;2.87;;;10.60;99.90;;;;;;5110411;27;20363;-61
2022/04/08 12:35:07;;;;;;;16.47;5.80;;;10.60;99.90;;;;;;5106202;28;20648;-61
2022/04/08 12:37:36;;;;;;;5.33;2.83;;;10.60;99.90;;;;;;5105532;28;20193;-60
2022/04/08 12:40:07;;;;;;;6.63;2.93;;;10.60;99.90;;;;;;5106207;27;20199;-61
2022/04/08 12:42:38;;;;;;;7.67;2.77;;;10.70;99.90;;;;;;5108602;27;20222;-60
2022/04/08 12:45:08;;;;;;;10.07;3.30;;;10.80;99.90;;;;;;5115524;27;20281;-61
2022/04/08 12:47:36;;;;;;;6.10;2.80;;;10.80;99.90;;;;;;5110022;28;20214;-61
2022/04/08 12:50:10;;;;;;;8.60;2.80;;;10.90;99.90;;;;;;5104962;28;20195;-60
2022/04/08 12:52:41;;;;;;;3.37;2.17;;;11.00;99.90;;;;;;5102320;27;20195;-61
2022/04/08 12:55:15;;;;;;;6.53;2.57;;;11.10;99.90;;;;;;5119897;27;20194;-61
2022/04/08 12:57:47;;;;;;;5.00;2.50;;;11.20;99.90;;;;;;5107778;27;20190;-61
2022/04/08 13:00:24;;;;;;;3.77;2.57;;;11.40;99.90;;;;;;5099228;27;20320;-61
2022/04/08 13:02:53;;;;;;;4.70;2.63;;;11.50;99.90;;;;;;5106658;27;20194;-60
2022/04/08 13:05:22;;;;;;;3.23;2.10;;;11.30;99.90;;;;;;5100113;27;20203;-61
2022/04/08 13:07:52;;;;;;;6.13;2.30;;;11.30;99.90;;;;;;5101313;27;20271;-60